sensor_id;sensor_type;location;lat;lon;timestamp;pressure;altitude;pressure_sealevel;temperature;humidity
62864;BME280;48954;59.950;11.014;2024-03-08T00:00:50;101197.02;;;-3.76;70.74
62864;BME280;48954;59.950;11.014;2024-03-08T00:03:42;101198.71;;;-3.78;70.60
62864;BME280;48954;59.950;11.014;2024-03-08T00:06:09;101200.59;;;-3.80;70.65
62864;BME280;48954;59.950;11.014;2024-03-08T00:08:41;101200.56;;;-3.81;70.95
62864;BME280;48954;59.950;11.014;2024-03-08T00:11:13;101197.10;;;-3.82;71.08
62864;BME280;48954;59.950;11.014;2024-03-08T00:13:58;101197.48;;;-3.83;70.92
62864;BME280;48954;59.950;11.014;2024-03-08T00:17:15;101199.86;;;-3.83;70.91
62864;BME280;48954;59.950;11.014;2024-03-08T00:20:11;101199.77;;;-3.86;70.69
62864;BME280;48954;59.950;11.014;2024-03-08T00:23:35;101193.19;;;-3.89;70.83
62864;BME280;48954;59.950;11.014;2024-03-08T00:26:42;101197.05;;;-3.92;70.70
62864;BME280;48954;59.950;11.014;2024-03-08T00:29:40;101190.44;;;-3.96;70.81
62864;BME280;48954;59.950;11.014;2024-03-08T00:32:21;101191.20;;;-3.97;71.01
62864;BME280;48954;59.950;11.014;2024-03-08T00:34:52;101190.23;;;-3.99;71.17
62864;BME280;48954;59.950;11.014;2024-03-08T00:37:35;101185.54;;;-4.00;71.13
62864;BME280;48954;59.950;11.014;2024-03-08T00:40:19;101182.64;;;-4.01;71.35
62864;BME280;48954;59.950;11.014;2024-03-08T00:43:01;101182.30;;;-4.03;71.61
62864;BME280;48954;59.950;11.014;2024-03-08T00:45:51;101177.69;;;-4.03;71.62
62864;BME280;48954;59.950;11.014;2024-03-08T00:48:52;101176.21;;;-4.04;71.65
62864;BME280;48954;59.950;11.014;2024-03-08T00:51:28;101175.89;;;-4.04;71.48
62864;BME280;48954;59.950;11.014;2024-03-08T00:54:09;101176.52;;;-4.05;71.58
62864;BME280;48954;59.950;11.014;2024-03-08T00:56:35;101174.17;;;-4.06;71.64
62864;BME280;48954;59.950;11.014;2024-03-08T00:59:02;101174.91;;;-4.06;71.69
62864;BME280;48954;59.950;11.014;2024-03-08T01:01:30;101176.16;;;-4.07;71.93
62864;BME280;48954;59.950;11.014;2024-03-08T01:04:06;101179.30;;;-4.09;71.69
62864;BME280;48954;59.950;11.014;2024-03-08T01:06:51;101172.95;;;-4.10;71.76
62864;BME280;48954;59.950;11.014;2024-03-08T01:09:32;101173.70;;;-4.12;71.73
62864;BME280;48954;59.950;11.014;2024-03-08T01:12:11;101170.02;;;-4.14;71.65
62864;BME280;48954;59.950;11.014;2024-03-08T01:14:50;101170.95;;;-4.15;72.05
62864;BME280;48954;59.950;11.014;2024-03-08T01:17:34;101170.39;;;-4.16;71.86
62864;BME280;48954;59.950;11.014;2024-03-08T01:20:07;101169.05;;;-4.18;72.03
62864;BME280;48954;59.950;11.014;2024-03-08T01:22:47;101172.61;;;-4.18;72.07
62864;BME280;48954;59.950;11.014;2024-03-08T01:25:30;101172.83;;;-4.19;72.22
62864;BME280;48954;59.950;11.014;2024-03-08T01:28:11;101168.71;;;-4.20;72.32
62864;BME280;48954;59.950;11.014;2024-03-08T01:30:41;101172.80;;;-4.20;72.44
62864;BME280;48954;59.950;11.014;2024-03-08T01:34:02;101170.30;;;-4.21;72.45
62864;BME280;48954;59.950;11.014;2024-03-08T01:37:27;101168.27;;;-4.22;72.44
62864;BME280;48954;59.950;11.014;2024-03-08T01:40:13;101164.33;;;-4.23;72.31
62864;BME280;48954;59.950;11.014;2024-03-08T01:42:50;101164.04;;;-4.24;72.52
62864;BME280;48954;59.950;11.014;2024-03-08T01:45:31;101158.98;;;-4.26;72.78
62864;BME280;48954;59.950;11.014;2024-03-08T01:48:00;101159.84;;;-4.26;72.47
62864;BME280;48954;59.950;11.014;2024-03-08T01:50:41;101152.33;;;-4.28;72.68
62864;BME280;48954;59.950;11.014;2024-03-08T01:53:19;101152.77;;;-4.30;72.56
62864;BME280;48954;59.950;11.014;2024-03-08T01:56:01;101146.35;;;-4.31;72.54
62864;BME280;48954;59.950;11.014;2024-03-08T01:58:35;101143.09;;;-4.33;72.31
62864;BME280;48954;59.950;11.014;2024-03-08T02:01:07;101143.52;;;-4.34;72.57
62864;BME280;48954;59.950;11.014;2024-03-08T02:03:49;101144.02;;;-4.35;72.89
62864;BME280;48954;59.950;11.014;2024-03-08T02:06:25;101141.64;;;-4.36;72.68
62864;BME280;48954;59.950;11.014;2024-03-08T02:09:08;101140.33;;;-4.37;72.75
62864;BME280;48954;59.950;11.014;2024-03-08T02:11:49;101140.58;;;-4.37;72.90
62864;BME280;48954;59.950;11.014;2024-03-08T02:14:30;101137.48;;;-4.38;72.88
62864;BME280;48954;59.950;11.014;2024-03-08T02:17:09;101137.98;;;-4.38;73.15
62864;BME280;48954;59.950;11.014;2024-03-08T02:19:40;101136.67;;;-4.39;73.43
62864;BME280;48954;59.950;11.014;2024-03-08T02:22:17;101142.30;;;-4.39;73.28
62864;BME280;48954;59.950;11.014;2024-03-08T02:24:44;101140.00;;;-4.41;72.96
62864;BME280;48954;59.950;11.014;2024-03-08T02:27:27;101134.88;;;-4.42;73.33
62864;BME280;48954;59.950;11.014;2024-03-08T02:30:09;101136.00;;;-4.42;73.66
62864;BME280;48954;59.950;11.014;2024-03-08T02:32:52;101130.06;;;-4.44;73.42
62864;BME280;48954;59.950;11.014;2024-03-08T02:35:22;101130.33;;;-4.45;73.49
62864;BME280;48954;59.950;11.014;2024-03-08T02:37:49;101126.59;;;-4.47;73.50
62864;BME280;48954;59.950;11.014;2024-03-08T02:40:17;101130.09;;;-4.49;73.53
62864;BME280;48954;59.950;11.014;2024-03-08T02:42:45;101126.14;;;-4.51;73.84
62864;BME280;48954;59.950;11.014;2024-03-08T02:45:14;101125.28;;;-4.52;73.29
62864;BME280;48954;59.950;11.014;2024-03-08T02:47:40;101122.47;;;-4.54;73.47
62864;BME280;48954;59.950;11.014;2024-03-08T02:50:07;101119.90;;;-4.56;73.24
62864;BME280;48954;59.950;11.014;2024-03-08T02:52:40;101119.59;;;-4.57;73.70
62864;BME280;48954;59.950;11.014;2024-03-08T02:55:07;101118.31;;;-4.58;73.60
62864;BME280;48954;59.950;11.014;2024-03-08T02:57:34;101116.66;;;-4.58;73.83
62864;BME280;48954;59.950;11.014;2024-03-08T03:00:01;101114.64;;;-4.57;73.79
62864;BME280;48954;59.950;11.014;2024-03-08T03:02:28;101114.38;;;-4.57;73.64
62864;BME280;48954;59.950;11.014;2024-03-08T03:04:54;101116.11;;;-4.57;74.06
62864;BME280;48954;59.950;11.014;2024-03-08T03:07:35;101115.66;;;-4.57;73.65
62864;BME280;48954;59.950;11.014;2024-03-08T03:10:02;101112.74;;;-4.58;74.06
62864;BME280;48954;59.950;11.014;2024-03-08T03:12:36;101110.23;;;-4.57;74.16
62864;BME280;48954;59.950;11.014;2024-03-08T03:15:03;101109.70;;;-4.57;74.13
62864;BME280;48954;59.950;11.014;2024-03-08T03:17:29;101108.96;;;-4.57;73.98
62864;BME280;48954;59.950;11.014;2024-03-08T03:19:56;101109.24;;;-4.56;74.03
62864;BME280;48954;59.950;11.014;2024-03-08T03:22:24;101110.98;;;-4.56;73.98
62864;BME280;48954;59.950;11.014;2024-03-08T03:25:05;101111.23;;;-4.56;73.86
62864;BME280;48954;59.950;11.014;2024-03-08T03:27:33;101108.35;;;-4.58;73.94
62864;BME280;48954;59.950;11.014;2024-03-08T03:30:00;101101.22;;;-4.59;73.91
62864;BME280;48954;59.950;11.014;2024-03-08T03:32:27;101101.48;;;-4.59;74.06
62864;BME280;48954;59.950;11.014;2024-03-08T03:34:54;101102.02;;;-4.61;74.06
62864;BME280;48954;59.950;11.014;2024-03-08T03:37:20;101095.36;;;-4.63;73.98
62864;BME280;48954;59.950;11.014;2024-03-08T03:39:46;101094.65;;;-4.65;73.99
62864;BME280;48954;59.950;11.014;2024-03-08T03:42:18;101094.40;;;-4.66;74.08
62864;BME280;48954;59.950;11.014;2024-03-08T03:44:46;101091.75;;;-4.67;74.11
62864;BME280;48954;59.950;11.014;2024-03-08T03:47:14;101090.28;;;-4.69;74.16
62864;BME280;48954;59.950;11.014;2024-03-08T03:49:43;101090.29;;;-4.68;74.37
62864;BME280;48954;59.950;11.014;2024-03-08T03:52:11;101088.14;;;-4.68;74.62
62864;BME280;48954;59.950;11.014;2024-03-08T03:54:38;101088.77;;;-4.69;74.44
62864;BME280;48954;59.950;11.014;2024-03-08T03:57:05;101090.74;;;-4.69;74.19
62864;BME280;48954;59.950;11.014;2024-03-08T03:59:33;101086.85;;;-4.68;74.20
62864;BME280;48954;59.950;11.014;2024-03-08T04:01:59;101086.44;;;-4.67;74.29
62864;BME280;48954;59.950;11.014;2024-03-08T04:04:25;101083.39;;;-4.69;74.28
62864;BME280;48954;59.950;11.014;2024-03-08T04:06:52;101085.73;;;-4.70;74.28
62864;BME280;48954;59.950;11.014;2024-03-08T04:09:18;101083.05;;;-4.71;74.24
62864;BME280;48954;59.950;11.014;2024-03-08T04:11:45;101082.08;;;-4.74;74.41
62864;BME280;48954;59.950;11.014;2024-03-08T04:14:12;101081.77;;;-4.75;74.38
62864;BME280;48954;59.950;11.014;2024-03-08T04:16:39;101077.17;;;-4.78;74.00
62864;BME280;48954;59.950;11.014;2024-03-08T04:19:07;101076.81;;;-4.79;74.04
62864;BME280;48954;59.950;11.014;2024-03-08T04:21:35;101078.64;;;-4.82;74.21
62864;BME280;48954;59.950;11.014;2024-03-08T04:24:05;101075.58;;;-4.84;74.05
62864;BME280;48954;59.950;11.014;2024-03-08T04:26:38;101073.32;;;-4.86;74.32
62864;BME280;48954;59.950;11.014;2024-03-08T04:29:05;101075.20;;;-4.87;74.60
62864;BME280;48954;59.950;11.014;2024-03-08T04:31:32;101074.80;;;-4.88;74.55
62864;BME280;48954;59.950;11.014;2024-03-08T04:34:03;101071.44;;;-4.91;74.55
62864;BME280;48954;59.950;11.014;2024-03-08T04:36:43;101070.52;;;-4.91;74.16
62864;BME280;48954;59.950;11.014;2024-03-08T04:39:14;101073.08;;;-4.92;74.19
62864;BME280;48954;59.950;11.014;2024-03-08T04:41:42;101070.91;;;-4.95;74.09
62864;BME280;48954;59.950;11.014;2024-03-08T04:44:09;101070.70;;;-4.97;74.13
62864;BME280;48954;59.950;11.014;2024-03-08T04:46:37;101067.71;;;-4.99;74.28
62864;BME280;48954;59.950;11.014;2024-03-08T04:49:04;101064.68;;;-5.02;74.19
62864;BME280;48954;59.950;11.014;2024-03-08T04:51:31;101063.88;;;-5.04;74.51
62864;BME280;48954;59.950;11.014;2024-03-08T04:54:00;101060.60;;;-5.06;74.31
62864;BME280;48954;59.950;11.014;2024-03-08T04:56:28;101058.48;;;-5.08;74.53
62864;BME280;48954;59.950;11.014;2024-03-08T04:59:05;101052.95;;;-5.10;74.60
62864;BME280;48954;59.950;11.014;2024-03-08T05:01:33;101053.49;;;-5.11;74.51
62864;BME280;48954;59.950;11.014;2024-03-08T05:04:04;101054.13;;;-5.13;74.58
62864;BME280;48954;59.950;11.014;2024-03-08T05:06:32;101051.73;;;-5.16;74.33
62864;BME280;48954;59.950;11.014;2024-03-08T05:08:59;101053.26;;;-5.17;74.25
62864;BME280;48954;59.950;11.014;2024-03-08T05:11:26;101056.79;;;-5.19;74.41
62864;BME280;48954;59.950;11.014;2024-03-08T05:13:52;101055.55;;;-5.21;74.27
62864;BME280;48954;59.950;11.014;2024-03-08T05:16:19;101053.39;;;-5.24;74.54
62864;BME280;48954;59.950;11.014;2024-03-08T05:18:48;101049.41;;;-5.26;74.24
62864;BME280;48954;59.950;11.014;2024-03-08T05:21:19;101048.85;;;-5.28;74.14
62864;BME280;48954;59.950;11.014;2024-03-08T05:24:02;101046.71;;;-5.32;74.19
62864;BME280;48954;59.950;11.014;2024-03-08T05:26:29;101047.83;;;-5.34;74.00
62864;BME280;48954;59.950;11.014;2024-03-08T05:28:58;101045.05;;;-5.37;74.41
62864;BME280;48954;59.950;11.014;2024-03-08T05:31:46;101046.38;;;-5.39;74.37
62864;BME280;48954;59.950;11.014;2024-03-08T05:34:13;101043.88;;;-5.41;74.53
62864;BME280;48954;59.950;11.014;2024-03-08T05:36:43;101041.95;;;-5.42;74.57
62864;BME280;48954;59.950;11.014;2024-03-08T05:39:15;101042.24;;;-5.43;74.30
62864;BME280;48954;59.950;11.014;2024-03-08T05:41:43;101042.35;;;-5.45;74.09
62864;BME280;48954;59.950;11.014;2024-03-08T05:44:26;101039.14;;;-5.47;74.54
62864;BME280;48954;59.950;11.014;2024-03-08T05:46:57;101039.10;;;-5.48;74.43
62864;BME280;48954;59.950;11.014;2024-03-08T05:49:27;101039.93;;;-5.49;74.46
62864;BME280;48954;59.950;11.014;2024-03-08T05:51:54;101035.89;;;-5.50;74.57
62864;BME280;48954;59.950;11.014;2024-03-08T05:54:22;101038.08;;;-5.50;74.25
62864;BME280;48954;59.950;11.014;2024-03-08T05:56:52;101037.88;;;-5.51;74.50
62864;BME280;48954;59.950;11.014;2024-03-08T05:59:20;101039.24;;;-5.50;74.74
62864;BME280;48954;59.950;11.014;2024-03-08T06:02:01;101042.79;;;-5.50;74.67
62864;BME280;48954;59.950;11.014;2024-03-08T06:04:41;101039.58;;;-5.50;74.94
62864;BME280;48954;59.950;11.014;2024-03-08T06:07:14;101038.42;;;-5.51;74.63
62864;BME280;48954;59.950;11.014;2024-03-08T06:09:43;101040.27;;;-5.50;74.86
62864;BME280;48954;59.950;11.014;2024-03-08T06:12:09;101039.88;;;-5.51;74.83
62864;BME280;48954;59.950;11.014;2024-03-08T06:14:36;101041.19;;;-5.50;75.01
62864;BME280;48954;59.950;11.014;2024-03-08T06:17:04;101044.52;;;-5.50;74.90
62864;BME280;48954;59.950;11.014;2024-03-08T06:19:37;101043.73;;;-5.49;74.78
62864;BME280;48954;59.950;11.014;2024-03-08T06:22:23;101044.52;;;-5.48;74.94
62864;BME280;48954;59.950;11.014;2024-03-08T06:25:04;101044.83;;;-5.47;74.75
62864;BME280;48954;59.950;11.014;2024-03-08T06:27:49;101043.90;;;-5.46;74.51
62864;BME280;48954;59.950;11.014;2024-03-08T06:30:17;101043.29;;;-5.44;74.64
62864;BME280;48954;59.950;11.014;2024-03-08T06:32:53;101045.41;;;-5.42;74.83
62864;BME280;48954;59.950;11.014;2024-03-08T06:35:22;101045.25;;;-5.37;75.00
62864;BME280;48954;59.950;11.014;2024-03-08T06:38:06;101046.50;;;-5.34;74.97
62864;BME280;48954;59.950;11.014;2024-03-08T06:40:48;101047.57;;;-5.28;75.14
62864;BME280;48954;59.950;11.014;2024-03-08T06:43:15;101046.98;;;-5.23;75.15
62864;BME280;48954;59.950;11.014;2024-03-08T06:46:17;101046.31;;;-5.16;75.14
62864;BME280;48954;59.950;11.014;2024-03-08T06:48:51;101042.53;;;-5.10;75.12
62864;BME280;48954;59.950;11.014;2024-03-08T06:51:19;101050.73;;;-5.02;75.00
62864;BME280;48954;59.950;11.014;2024-03-08T06:53:47;101053.39;;;-4.96;75.16
62864;BME280;48954;59.950;11.014;2024-03-08T06:56:14;101051.38;;;-4.91;74.99
62864;BME280;48954;59.950;11.014;2024-03-08T06:58:55;101053.73;;;-4.84;75.33
62864;BME280;48954;59.950;11.014;2024-03-08T07:01:32;101055.70;;;-4.74;75.51
62864;BME280;48954;59.950;11.014;2024-03-08T07:03:58;101057.42;;;-4.64;75.31
62864;BME280;48954;59.950;11.014;2024-03-08T07:06:24;101058.36;;;-4.55;75.43
62864;BME280;48954;59.950;11.014;2024-03-08T07:08:51;101053.22;;;-4.47;75.14
62864;BME280;48954;59.950;11.014;2024-03-08T07:11:17;101054.31;;;-4.38;75.24
62864;BME280;48954;59.950;11.014;2024-03-08T07:13:45;101052.66;;;-4.29;75.26
62864;BME280;48954;59.950;11.014;2024-03-08T07:16:17;101054.02;;;-4.18;74.94
62864;BME280;48954;59.950;11.014;2024-03-08T07:18:43;101055.10;;;-4.00;74.76
62864;BME280;48954;59.950;11.014;2024-03-08T07:21:10;101050.51;;;-3.83;74.99
62864;BME280;48954;59.950;11.014;2024-03-08T07:23:37;101046.80;;;-3.65;74.71
62864;BME280;48954;59.950;11.014;2024-03-08T07:26:04;101046.77;;;-3.54;74.34
62864;BME280;48954;59.950;11.014;2024-03-08T07:28:32;101045.14;;;-3.44;74.42
62864;BME280;48954;59.950;11.014;2024-03-08T07:30:59;101046.34;;;-3.29;74.33
62864;BME280;48954;59.950;11.014;2024-03-08T07:33:31;101040.80;;;-3.11;73.94
62864;BME280;48954;59.950;11.014;2024-03-08T07:36:01;101039.58;;;-2.92;73.86
62864;BME280;48954;59.950;11.014;2024-03-08T07:38:27;101040.28;;;-2.72;73.61
62864;BME280;48954;59.950;11.014;2024-03-08T07:41:03;101042.85;;;-2.53;73.18
62864;BME280;48954;59.950;11.014;2024-03-08T07:43:39;101039.62;;;-2.35;73.07
62864;BME280;48954;59.950;11.014;2024-03-08T07:46:14;101043.30;;;-2.15;72.61
62864;BME280;48954;59.950;11.014;2024-03-08T07:48:50;101044.91;;;-1.95;72.53
62864;BME280;48954;59.950;11.014;2024-03-08T07:51:17;101042.48;;;-1.76;72.43
62864;BME280;48954;59.950;11.014;2024-03-08T07:53:59;101044.73;;;-1.55;72.14
62864;BME280;48954;59.950;11.014;2024-03-08T07:56:35;101041.79;;;-1.33;71.90
62864;BME280;48954;59.950;11.014;2024-03-08T07:59:05;101044.19;;;-1.08;72.08
62864;BME280;48954;59.950;11.014;2024-03-08T08:01:40;101037.47;;;-0.83;72.07
62864;BME280;48954;59.950;11.014;2024-03-08T08:04:07;101036.88;;;-0.57;71.84
62864;BME280;48954;59.950;11.014;2024-03-08T08:06:34;101039.47;;;-0.31;71.75
62864;BME280;48954;59.950;11.014;2024-03-08T08:09:02;101035.42;;;-0.05;71.42
62864;BME280;48954;59.950;11.014;2024-03-08T08:11:30;101031.14;;;0.20;71.24
62864;BME280;48954;59.950;11.014;2024-03-08T08:13:58;101034.91;;;0.52;70.74
62864;BME280;48954;59.950;11.014;2024-03-08T08:16:46;101034.18;;;0.86;70.56
62864;BME280;48954;59.950;11.014;2024-03-08T08:19:16;101029.79;;;1.12;69.97
62864;BME280;48954;59.950;11.014;2024-03-08T08:21:46;101032.81;;;1.43;69.78
62864;BME280;48954;59.950;11.014;2024-03-08T08:24:12;101035.89;;;1.68;69.01
62864;BME280;48954;59.950;11.014;2024-03-08T08:26:39;101029.90;;;1.94;68.71
62864;BME280;48954;59.950;11.014;2024-03-08T08:29:08;101033.69;;;2.26;68.52
62864;BME280;48954;59.950;11.014;2024-03-08T08:31:34;101027.23;;;2.58;68.11
62864;BME280;48954;59.950;11.014;2024-03-08T08:34:00;101028.00;;;2.90;67.51
62864;BME280;48954;59.950;11.014;2024-03-08T08:36:30;101022.70;;;3.24;66.95
62864;BME280;48954;59.950;11.014;2024-03-08T08:38:57;101024.16;;;3.54;66.29
62864;BME280;48954;59.950;11.014;2024-03-08T08:41:23;101019.98;;;3.85;65.72
62864;BME280;48954;59.950;11.014;2024-03-08T08:43:52;101020.08;;;4.05;64.95
62864;BME280;48954;59.950;11.014;2024-03-08T08:46:18;101016.14;;;4.31;65.00
62864;BME280;48954;59.950;11.014;2024-03-08T08:48:44;101013.70;;;4.62;64.20
62864;BME280;48954;59.950;11.014;2024-03-08T08:51:12;101013.04;;;5.00;64.11
62864;BME280;48954;59.950;11.014;2024-03-08T08:53:39;101008.84;;;5.27;62.74
62864;BME280;48954;59.950;11.014;2024-03-08T08:56:20;101010.67;;;5.20;61.51
62864;BME280;48954;59.950;11.014;2024-03-08T08:58:52;101004.83;;;5.29;61.78
62864;BME280;48954;59.950;11.014;2024-03-08T09:01:21;101005.00;;;5.59;61.76
62864;BME280;48954;59.950;11.014;2024-03-08T09:03:53;101002.11;;;5.95;61.49
62864;BME280;48954;59.950;11.014;2024-03-08T09:06:23;100999.55;;;6.18;60.28
62864;BME280;48954;59.950;11.014;2024-03-08T09:08:58;100996.06;;;6.24;59.77
62864;BME280;48954;59.950;11.014;2024-03-08T09:11:24;100995.20;;;6.40;59.93
62864;BME280;48954;59.950;11.014;2024-03-08T09:13:51;100986.64;;;6.63;59.64
62864;BME280;48954;59.950;11.014;2024-03-08T09:16:18;100983.52;;;6.72;58.47
62864;BME280;48954;59.950;11.014;2024-03-08T09:18:48;100982.98;;;6.85;58.48
62864;BME280;48954;59.950;11.014;2024-03-08T09:21:30;100980.95;;;7.08;58.14
62864;BME280;48954;59.950;11.014;2024-03-08T09:23:55;100977.33;;;7.22;57.14
62864;BME280;48954;59.950;11.014;2024-03-08T09:26:21;100969.36;;;7.28;56.51
62864;BME280;48954;59.950;11.014;2024-03-08T09:28:48;100972.30;;;7.53;57.29
62864;BME280;48954;59.950;11.014;2024-03-08T09:31:14;100966.19;;;7.90;56.77
62864;BME280;48954;59.950;11.014;2024-03-08T09:33:42;100959.89;;;8.36;56.67
62864;BME280;48954;59.950;11.014;2024-03-08T09:36:08;100961.45;;;8.69;55.44
62864;BME280;48954;59.950;11.014;2024-03-08T09:38:34;100956.67;;;9.01;54.97
62864;BME280;48954;59.950;11.014;2024-03-08T09:41:03;100954.30;;;9.38;54.77
62864;BME280;48954;59.950;11.014;2024-03-08T09:43:29;100956.27;;;9.74;53.87
62864;BME280;48954;59.950;11.014;2024-03-08T09:45:57;100958.98;;;10.00;53.76
62864;BME280;48954;59.950;11.014;2024-03-08T09:48:23;100955.64;;;10.15;52.89
62864;BME280;48954;59.950;11.014;2024-03-08T09:50:51;100952.67;;;10.28;52.55
62864;BME280;48954;59.950;11.014;2024-03-08T09:53:18;100952.34;;;10.63;52.42
62864;BME280;48954;59.950;11.014;2024-03-08T09:55:44;100951.86;;;10.96;51.44
62864;BME280;48954;59.950;11.014;2024-03-08T09:58:14;100946.02;;;11.23;51.01
62864;BME280;48954;59.950;11.014;2024-03-08T10:00:40;100944.80;;;11.58;50.57
62864;BME280;48954;59.950;11.014;2024-03-08T10:03:11;100945.05;;;11.89;50.23
62864;BME280;48954;59.950;11.014;2024-03-08T10:05:38;100937.84;;;12.26;49.54
62864;BME280;48954;59.950;11.014;2024-03-08T10:08:07;100941.32;;;12.45;49.08
62864;BME280;48954;59.950;11.014;2024-03-08T10:10:34;100939.42;;;12.69;48.85
62864;BME280;48954;59.950;11.014;2024-03-08T10:13:01;100933.99;;;13.16;48.07
62864;BME280;48954;59.950;11.014;2024-03-08T10:15:27;100931.40;;;13.61;47.31
62864;BME280;48954;59.950;11.014;2024-03-08T10:17:56;100928.05;;;14.18;46.78
62864;BME280;48954;59.950;11.014;2024-03-08T10:20:22;100921.77;;;14.61;45.41
62864;BME280;48954;59.950;11.014;2024-03-08T10:22:48;100921.98;;;14.89;45.02
62864;BME280;48954;59.950;11.014;2024-03-08T10:25:14;100924.10;;;15.31;44.61
62864;BME280;48954;59.950;11.014;2024-03-08T10:27:41;100914.89;;;15.52;43.36
62864;BME280;48954;59.950;11.014;2024-03-08T10:30:13;100914.15;;;15.47;42.69
62864;BME280;48954;59.950;11.014;2024-03-08T10:32:40;100908.63;;;15.45;42.24
62864;BME280;48954;59.950;11.014;2024-03-08T10:35:09;100904.64;;;15.61;42.09
62864;BME280;48954;59.950;11.014;2024-03-08T10:37:46;100902.28;;;15.94;41.60
62864;BME280;48954;59.950;11.014;2024-03-08T10:40:16;100901.93;;;16.23;41.14
62864;BME280;48954;59.950;11.014;2024-03-08T10:45:37;100896.53;;;16.74;40.18
62864;BME280;48954;59.950;11.014;2024-03-08T10:48:29;100892.86;;;16.89;39.22
62864;BME280;48954;59.950;11.014;2024-03-08T10:50:56;100892.71;;;16.73;38.65
62864;BME280;48954;59.950;11.014;2024-03-08T10:53:22;100892.17;;;16.51;38.43
62864;BME280;48954;59.950;11.014;2024-03-08T10:55:49;100885.42;;;16.42;38.40
62864;BME280;48954;59.950;11.014;2024-03-08T10:58:16;100887.86;;;16.12;38.26
62864;BME280;48954;59.950;11.014;2024-03-08T11:00:44;100882.29;;;15.85;38.25
62864;BME280;48954;59.950;11.014;2024-03-08T11:08:43;100872.71;;;17.05;36.83
62864;BME280;48954;59.950;11.014;2024-03-08T11:11:30;100867.30;;;17.55;36.48
62864;BME280;48954;59.950;11.014;2024-03-08T11:13:57;100861.54;;;18.36;35.75
62864;BME280;48954;59.950;11.014;2024-03-08T11:21:43;100859.09;;;18.11;34.70
62864;BME280;48954;59.950;11.014;2024-03-08T11:24:13;100859.86;;;17.84;34.68
62864;BME280;48954;59.950;11.014;2024-03-08T11:26:40;100861.38;;;17.20;34.52
62864;BME280;48954;59.950;11.014;2024-03-08T11:29:32;100862.55;;;17.00;34.57
62864;BME280;48954;59.950;11.014;2024-03-08T11:34:33;100858.99;;;17.40;34.18
62864;BME280;48954;59.950;11.014;2024-03-08T11:37:00;100856.16;;;18.03;33.11
62864;BME280;48954;59.950;11.014;2024-03-08T11:39:29;100853.08;;;18.14;33.01
62864;BME280;48954;59.950;11.014;2024-03-08T11:42:00;100851.09;;;18.83;32.70
62864;BME280;48954;59.950;11.014;2024-03-08T11:44:27;100851.14;;;18.91;32.27
62864;BME280;48954;59.950;11.014;2024-03-08T11:46:54;100843.95;;;18.54;32.13
62864;BME280;48954;59.950;11.014;2024-03-08T11:49:21;100843.58;;;18.11;32.05
62864;BME280;48954;59.950;11.014;2024-03-08T11:51:53;100837.48;;;17.53;32.80
62864;BME280;48954;59.950;11.014;2024-03-08T11:54:19;100835.70;;;17.77;32.25
62864;BME280;48954;59.950;11.014;2024-03-08T11:56:45;100827.77;;;18.12;31.67
62864;BME280;48954;59.950;11.014;2024-03-08T11:59:12;100826.96;;;18.03;31.86
62864;BME280;48954;59.950;11.014;2024-03-08T12:01:40;100824.70;;;17.82;31.48
62864;BME280;48954;59.950;11.014;2024-03-08T12:04:06;100824.02;;;17.17;31.69
62864;BME280;48954;59.950;11.014;2024-03-08T12:06:38;100818.86;;;17.23;31.63
62864;BME280;48954;59.950;11.014;2024-03-08T12:09:08;100811.48;;;16.99;31.33
62864;BME280;48954;59.950;11.014;2024-03-08T12:11:34;100809.69;;;16.79;31.74
62864;BME280;48954;59.950;11.014;2024-03-08T12:14:00;100813.71;;;16.31;32.29
62864;BME280;48954;59.950;11.014;2024-03-08T12:16:27;100811.67;;;16.22;32.33
62864;BME280;48954;59.950;11.014;2024-03-08T12:18:59;100813.30;;;16.35;32.02
62864;BME280;48954;59.950;11.014;2024-03-08T12:22:42;100811.75;;;15.36;32.37
62864;BME280;48954;59.950;11.014;2024-03-08T12:25:30;100802.75;;;14.02;32.87
62864;BME280;48954;59.950;11.014;2024-03-08T12:27:56;100799.26;;;13.35;33.44
62864;BME280;48954;59.950;11.014;2024-03-08T12:32:59;100797.20;;;12.99;34.46
62864;BME280;48954;59.950;11.014;2024-03-08T12:35:55;100793.73;;;13.08;34.64
62864;BME280;48954;59.950;11.014;2024-03-08T12:38:23;100789.36;;;12.98;34.66
62864;BME280;48954;59.950;11.014;2024-03-08T12:40:55;100784.13;;;12.92;34.88
62864;BME280;48954;59.950;11.014;2024-03-08T12:43:52;100778.94;;;13.09;34.89
62864;BME280;48954;59.950;11.014;2024-03-08T12:46:22;100778.15;;;12.59;35.12
62864;BME280;48954;59.950;11.014;2024-03-08T12:48:52;100775.10;;;12.09;35.17
62864;BME280;48954;59.950;11.014;2024-03-08T12:51:18;100785.30;;;11.73;35.69
62864;BME280;48954;59.950;11.014;2024-03-08T12:53:45;100779.59;;;11.86;36.12
62864;BME280;48954;59.950;11.014;2024-03-08T12:56:32;100772.73;;;12.97;35.60
62864;BME280;48954;59.950;11.014;2024-03-08T12:59:00;100771.39;;;13.70;35.07
62864;BME280;48954;59.950;11.014;2024-03-08T13:01:27;100771.61;;;13.34;35.19
62864;BME280;48954;59.950;11.014;2024-03-08T13:03:54;100763.29;;;13.30;35.18
62864;BME280;48954;59.950;11.014;2024-03-08T13:06:21;100764.98;;;12.82;35.57
62864;BME280;48954;59.950;11.014;2024-03-08T13:08:48;100761.80;;;12.68;35.83
62864;BME280;48954;59.950;11.014;2024-03-08T13:11:14;100760.86;;;12.71;35.76
62864;BME280;48954;59.950;11.014;2024-03-08T13:14:05;100754.45;;;13.11;36.16
62864;BME280;48954;59.950;11.014;2024-03-08T13:16:36;100750.85;;;13.58;36.13
62864;BME280;48954;59.950;11.014;2024-03-08T13:19:11;100744.16;;;13.84;35.63
62864;BME280;48954;59.950;11.014;2024-03-08T13:21:37;100742.30;;;13.52;35.48
62864;BME280;48954;59.950;11.014;2024-03-08T13:24:13;100739.50;;;12.82;35.95
62864;BME280;48954;59.950;11.014;2024-03-08T13:26:54;100740.80;;;11.99;36.70